createdAt,value
2023-02-15T00:00:37.286Z,-2
2023-02-15T00:02:37.234Z,-2.1
2023-02-15T00:04:37.028Z,-2.1
2023-02-15T00:06:37.095Z,-2
2023-02-15T00:08:36.850Z,-2
2023-02-15T00:10:36.592Z,-2.1
2023-02-15T00:12:36.494Z,-2.1
2023-02-15T00:14:36.345Z,-2.1
2023-02-15T00:16:37.081Z,-2.1
2023-02-15T00:18:36.106Z,-2.1
2023-02-15T00:20:35.935Z,-2
2023-02-15T00:22:35.719Z,-2
2023-02-15T00:24:35.603Z,-2
2023-02-15T00:26:35.978Z,-2
2023-02-15T00:28:35.418Z,-2
2023-02-15T00:30:35.280Z,-2.1
2023-02-15T00:32:36.052Z,-2.1
2023-02-15T00:34:35.356Z,-2.1
2023-02-15T00:36:34.849Z,-2.1
2023-02-15T00:38:35.401Z,-2.1
2023-02-15T00:40:34.492Z,-1.9
2023-02-15T00:42:34.453Z,-1.9
2023-02-15T00:44:34.347Z,-1.9
2023-02-15T00:46:34.434Z,-1.9
2023-02-15T00:48:33.964Z,-1.9
2023-02-15T00:50:33.867Z,-2
2023-02-15T00:52:33.717Z,-2
2023-02-15T00:54:33.681Z,-2
2023-02-15T00:56:33.592Z,-2
2023-02-15T00:58:33.298Z,-2.1
2023-02-15T01:00:33.292Z,-2.1
2023-02-15T01:02:33.062Z,-2.1
2023-02-15T01:04:32.942Z,-2.1
2023-02-15T01:06:33.057Z,-2.1
2023-02-15T01:08:32.625Z,-2.1
2023-02-15T01:10:33.796Z,-2
2023-02-15T01:12:32.377Z,-2
2023-02-15T01:14:32.164Z,-2.1
2023-02-15T01:16:33.208Z,-2.1
2023-02-15T01:18:32.646Z,-2.1
2023-02-15T01:20:36.098Z,-2.2
2023-02-15T01:22:32.557Z,-2.2
2023-02-15T01:24:31.956Z,-2.1
2023-02-15T01:26:32.624Z,-2.1
2023-02-15T01:28:31.893Z,-2.1
2023-02-15T01:30:32.153Z,-2.2
2023-02-15T01:32:31.100Z,-2.2
2023-02-15T01:34:31.428Z,-2.2
2023-02-15T01:36:30.716Z,-2.2
2023-02-15T01:38:30.731Z,-2.1
2023-02-15T01:40:30.426Z,-2.2
2023-02-15T01:42:30.890Z,-2.2
2023-02-15T01:44:50.281Z,-2.2
2023-02-15T01:46:38.520Z,-2.2
2023-02-15T01:48:30.111Z,-2.1
2023-02-15T01:50:33.930Z,-2.2
2023-02-15T01:52:30.126Z,-2.3
2023-02-15T01:54:32.396Z,-2.3
2023-02-15T01:56:33.875Z,-2.3
2023-02-15T01:58:30.836Z,-2.3
2023-02-15T02:00:29.680Z,-2.3
2023-02-15T02:02:29.170Z,-2.3
2023-02-15T02:04:35.794Z,-2.3
2023-02-15T02:06:29.628Z,-2.3
2023-02-15T02:08:28.620Z,-2.3
2023-02-15T02:10:31.028Z,-2.3
2023-02-15T02:12:28.186Z,-2.3
2023-02-15T02:14:29.265Z,-2.3
2023-02-15T02:16:36.641Z,-2.3
2023-02-15T02:18:39.745Z,-2.3
2023-02-15T02:20:43.762Z,-2.2
2023-02-15T02:23:01.428Z,-2.4
2023-02-15T02:24:45.686Z,-2.4
2023-02-15T02:26:48.299Z,-2.4
2023-02-15T02:28:48.493Z,-2.4
2023-02-15T02:30:41.004Z,-2.3
2023-02-15T02:32:46.457Z,-2.3
2023-02-15T02:34:30.912Z,-2.4
2023-02-15T02:36:35.302Z,-2.4
2023-02-15T02:38:38.963Z,-2.4
2023-02-15T02:40:33.373Z,-2.4
2023-02-15T02:42:31.326Z,-2.4
2023-02-15T02:44:33.836Z,-2.4
2023-02-15T02:46:32.740Z,-2.4
2023-02-15T02:48:28.531Z,-2.4
2023-02-15T02:50:27.927Z,-2.3
2023-02-15T02:52:41.134Z,-2.3
2023-02-15T02:54:25.199Z,-2.3
2023-02-15T02:56:28.218Z,-2.3
2023-02-15T02:58:30.059Z,-2.6
2023-02-15T03:00:28.471Z,-2.7
2023-02-15T03:02:31.970Z,-2.7
2023-02-15T03:04:29.456Z,-2.7
2023-02-15T03:06:29.163Z,-2.5
2023-02-15T03:08:31.841Z,-2.7
2023-02-15T03:10:25.018Z,-2.7
2023-02-15T03:12:28.301Z,-2.6
2023-02-15T03:14:24.510Z,-2.6
2023-02-15T03:16:24.080Z,-2.6
2023-02-15T03:18:28.476Z,-2.8
2023-02-15T03:20:28.218Z,-2.6
2023-02-15T03:22:28.958Z,-2.6
2023-02-15T03:24:27.310Z,-2.6
2023-02-15T03:26:25.141Z,-2.7
2023-02-15T03:28:27.985Z,-2.7
2023-02-15T03:30:25.202Z,-2.7
2023-02-15T03:32:24.629Z,-2.8
2023-02-15T03:34:22.065Z,-2.9
2023-02-15T03:36:27.819Z,-2.9
2023-02-15T03:38:29.891Z,-2.9
2023-02-15T03:40:26.662Z,-2.7
2023-02-15T03:42:28.278Z,-2.8
2023-02-15T03:44:27.880Z,-2.8
2023-02-15T03:46:25.755Z,-2.8
2023-02-15T03:48:25.342Z,-2.9
2023-02-15T03:50:24.954Z,-2.9
2023-02-15T03:52:25.222Z,-2.9
2023-02-15T03:54:24.468Z,-2.9
2023-02-15T03:56:20.597Z,-2.9
2023-02-15T03:58:20.143Z,-2.9
2023-02-15T04:00:23.129Z,-2.9
2023-02-15T04:02:24.579Z,-3
2023-02-15T04:04:25.508Z,-3
2023-02-15T04:06:19.501Z,-3
2023-02-15T04:08:19.500Z,-3
2023-02-15T04:10:19.122Z,-3
2023-02-15T04:12:19.418Z,-3
2023-02-15T04:14:18.909Z,-3
2023-02-15T04:16:18.884Z,-2.9
2023-02-15T04:18:18.762Z,-2.9
2023-02-15T04:20:18.409Z,-2.9
2023-02-15T04:22:18.322Z,-2.9
2023-02-15T04:24:18.550Z,-2.9
2023-02-15T04:26:17.904Z,-2.9
2023-02-15T04:28:17.838Z,-2.9
2023-02-15T04:30:20.675Z,-3
2023-02-15T04:32:17.601Z,-2.9
2023-02-15T04:34:17.520Z,-2.9
2023-02-15T04:36:17.113Z,-2.9
2023-02-15T04:38:16.946Z,-2.9
2023-02-15T04:40:19.459Z,-3
2023-02-15T04:42:16.752Z,-3
2023-02-15T04:44:16.702Z,-3
2023-02-15T04:46:16.339Z,-3
2023-02-15T04:48:16.781Z,-3
2023-02-15T04:50:16.328Z,-2.8
2023-02-15T04:52:16.485Z,-3
2023-02-15T04:54:15.669Z,-3
2023-02-15T04:56:15.767Z,-3
2023-02-15T04:58:15.362Z,-3
2023-02-15T05:00:15.823Z,-3
2023-02-15T05:02:15.294Z,-2.9
2023-02-15T05:04:15.435Z,-2.9
2023-02-15T05:06:14.799Z,-2.9
2023-02-15T05:08:15.398Z,-3.1
2023-02-15T05:10:14.617Z,-3.1
2023-02-15T05:12:14.346Z,-3
2023-02-15T05:14:14.320Z,-3
2023-02-15T05:16:14.044Z,-3
2023-02-15T05:18:13.822Z,-3
2023-02-15T05:20:13.816Z,-3
2023-02-15T05:22:13.492Z,-3
2023-02-15T05:24:13.325Z,-2.9
2023-02-15T05:26:18.273Z,-3.1
2023-02-15T05:28:13.085Z,-3
2023-02-15T05:30:14.026Z,-3
2023-02-15T05:32:14.176Z,-3
2023-02-15T05:34:13.084Z,-3
2023-02-15T05:36:12.625Z,-3
2023-02-15T05:38:12.364Z,-3
2023-02-15T05:40:12.503Z,-2.8
2023-02-15T05:42:12.012Z,-2.8
2023-02-15T05:44:11.911Z,-2.9
2023-02-15T05:46:12.929Z,-2.9
2023-02-15T05:48:11.480Z,-2.9
2023-02-15T05:50:11.668Z,-2.9
2023-02-15T05:52:11.070Z,-2.8
2023-02-15T05:54:10.938Z,-2.8
2023-02-15T05:56:11.910Z,-2.7
2023-02-15T05:58:10.641Z,-2.7
2023-02-15T06:00:13.598Z,-2.8
2023-02-15T06:02:10.446Z,-2.8
2023-02-15T06:04:10.262Z,-2.8
2023-02-15T06:06:10.469Z,-2.8
2023-02-15T06:08:10.039Z,-2.7
2023-02-15T06:10:10.299Z,-2.5
2023-02-15T06:12:09.580Z,-2.4
2023-02-15T06:14:09.498Z,-2.4
2023-02-15T06:16:10.458Z,-2.4
2023-02-15T06:18:09.113Z,-2.4
2023-02-15T06:20:10.235Z,-2.7
2023-02-15T06:22:08.967Z,-2.7
2023-02-15T06:24:09.818Z,-2.7
2023-02-15T06:26:08.613Z,-2.6
2023-02-15T06:28:08.401Z,-2.6
2023-02-15T06:30:10.371Z,-2.6
2023-02-15T06:32:08.132Z,-2.6
2023-02-15T06:34:09.118Z,-2.5
2023-02-15T06:36:07.778Z,-2.5
2023-02-15T06:38:07.627Z,-2.6
2023-02-15T06:40:08.744Z,-2.4
2023-02-15T06:42:07.302Z,-2.4
2023-02-15T06:44:07.054Z,-2.5
2023-02-15T06:46:07.002Z,-2.5
2023-02-15T06:48:06.669Z,-2.5
2023-02-15T06:50:08.533Z,-2.4
2023-02-15T06:52:06.606Z,-2.4
2023-02-15T06:54:06.512Z,-2.5
2023-02-15T06:56:07.773Z,-2.3
2023-02-15T06:58:05.950Z,-2.3
2023-02-15T07:00:06.993Z,-2.3
2023-02-15T07:02:05.812Z,-2.4
2023-02-15T07:04:05.604Z,-2.4
2023-02-15T07:06:05.666Z,-2.4
2023-02-15T07:08:05.218Z,-2.4
2023-02-15T07:10:06.452Z,-2.4
2023-02-15T07:12:05.169Z,-2.4
2023-02-15T07:14:04.824Z,-2.3
2023-02-15T07:16:05.184Z,-2.3
2023-02-15T07:18:04.484Z,-2.3
2023-02-15T07:20:07.100Z,-2.2
2023-02-15T07:22:04.126Z,-2.2
2023-02-15T07:24:04.422Z,-2.2
2023-02-15T07:26:05.139Z,-2.2
2023-02-15T07:28:04.990Z,-2
2023-02-15T07:30:04.190Z,-2.1
2023-02-15T07:32:03.424Z,-2
2023-02-15T07:34:03.138Z,-2
2023-02-15T07:36:05.023Z,-2
2023-02-15T07:38:02.862Z,-2.2
2023-02-15T07:40:02.802Z,-2.2
2023-02-15T07:42:04.862Z,-2.1
2023-02-15T07:44:02.885Z,-2.1
2023-02-15T07:46:03.821Z,-2
2023-02-15T07:48:02.146Z,-2.2
2023-02-15T07:50:01.967Z,-2.2
2023-02-15T07:52:02.134Z,-2.2
2023-02-15T07:54:01.579Z,-2
2023-02-15T07:56:02.521Z,-2
2023-02-15T07:58:01.803Z,-1.9
2023-02-15T08:00:01.383Z,-1.9
2023-02-15T08:02:01.033Z,-1.9
2023-02-15T08:04:01.000Z,-1.9
2023-02-15T08:06:01.157Z,-2
2023-02-15T08:08:00.614Z,-2
2023-02-15T08:10:00.298Z,-2
2023-02-15T08:12:00.191Z,-1.9
2023-02-15T08:14:02.225Z,-1.7
2023-02-15T08:16:00.189Z,-1.8
2023-02-15T08:17:59.740Z,-1.8
2023-02-15T08:19:59.547Z,-1.7
2023-02-15T08:22:01.469Z,-1.6
2023-02-15T08:24:00.302Z,-1.8
2023-02-15T08:26:01.074Z,-1.8
2023-02-15T08:27:59.023Z,-1.9
2023-02-15T08:29:58.917Z,-1.9
2023-02-15T08:32:01.109Z,-2
2023-02-15T08:33:59.211Z,-2
2023-02-15T08:36:03.360Z,-2
2023-02-15T08:37:58.312Z,-1.8
2023-02-15T08:39:58.127Z,-1.8
2023-02-15T08:41:58.233Z,-1.7
2023-02-15T08:43:59.813Z,-1.7
2023-02-15T08:45:57.761Z,-1.8
2023-02-15T08:47:57.633Z,-2.1
2023-02-15T08:49:57.398Z,-2.1
2023-02-15T08:51:57.201Z,-2
2023-02-15T08:53:58.991Z,-1.9
2023-02-15T08:55:57.558Z,-1.9
2023-02-15T08:57:57.703Z,-1.7
2023-02-15T08:59:56.789Z,-1.8
2023-02-15T09:01:56.850Z,-1.7
2023-02-15T09:03:58.083Z,-1.7
2023-02-15T09:05:59.484Z,-1.7
2023-02-15T09:07:56.119Z,-1.7
2023-02-15T09:09:56.096Z,-1.7
2023-02-15T09:11:59.384Z,-1.7
2023-02-15T09:13:58.767Z,-1.9
2023-02-15T09:15:59.930Z,-1.8
2023-02-15T09:17:55.535Z,-1.8
2023-02-15T09:19:55.316Z,-1.8
2023-02-15T09:21:55.258Z,-1.7
2023-02-15T09:23:58.575Z,-1.7
2023-02-15T09:25:55.037Z,-1.5
2023-02-15T09:27:54.880Z,-1.5
2023-02-15T09:29:54.778Z,-1.5
2023-02-15T09:31:55.188Z,-1.8
2023-02-15T09:33:55.550Z,-1.5
2023-02-15T09:35:54.328Z,-1.5
2023-02-15T09:37:54.138Z,-1.8
2023-02-15T09:39:54.429Z,-1.4
2023-02-15T09:42:21.307Z,-1.4
2023-02-15T09:44:05.312Z,-1.4
2023-02-15T09:46:09.015Z,-1.2
2023-02-15T09:48:20.360Z,-1.4
2023-02-15T09:50:03.403Z,-1.4
2023-02-15T09:52:12.664Z,-1.2
2023-02-15T09:54:05.500Z,-1
2023-02-15T09:56:02.641Z,-1.4
2023-02-15T09:58:00.828Z,-1.4
2023-02-15T10:00:01.436Z,-1.4
2023-02-15T10:02:07.731Z,-1.5
2023-02-15T10:04:06.446Z,-1.5
2023-02-15T10:06:08.351Z,-1.7
2023-02-15T10:08:14.867Z,-1.7
2023-02-15T10:10:04.339Z,-1.7
2023-02-15T10:12:08.998Z,-1.7
2023-02-15T10:14:06.803Z,-1.5
2023-02-15T10:16:05.555Z,-1.5
2023-02-15T10:18:06.123Z,-1.5
2023-02-15T10:20:03.372Z,-1.7
2023-02-15T10:22:05.905Z,-1.6
2023-02-15T10:24:17.565Z,-1.4
2023-02-15T10:25:57.968Z,-1.7
2023-02-15T10:27:51.310Z,-1.6
2023-02-15T10:30:02.017Z,-1.7
2023-02-15T10:31:54.524Z,-1.7
2023-02-15T10:34:03.284Z,-1.3
2023-02-15T10:36:06.249Z,-1.5
2023-02-15T10:38:02.205Z,-1.5
2023-02-15T10:40:01.280Z,-1.3
2023-02-15T10:42:00.626Z,-1.3
2023-02-15T10:44:03.656Z,-1.2
2023-02-15T10:45:58.912Z,-1.5
2023-02-15T10:48:02.219Z,-1.4
2023-02-15T10:50:05.459Z,-1.5
2023-02-15T10:52:03.548Z,-1.5
2023-02-15T10:54:05.594Z,-1.3
2023-02-15T10:55:55.927Z,-1.3
2023-02-15T10:57:55.040Z,-1.4
2023-02-15T11:00:03.014Z,-1.5
2023-02-15T11:01:54.473Z,-1.4
2023-02-15T11:04:08.669Z,-1.4
2023-02-15T11:06:02.200Z,-1.4
2023-02-15T11:07:51.367Z,-1.4
2023-02-15T11:09:51.674Z,-1.4
2023-02-15T11:11:51.929Z,-1.6
2023-02-15T11:13:53.194Z,-1.7
2023-02-15T11:15:52.105Z,-1.9
2023-02-15T11:17:55.819Z,-1.6
2023-02-15T11:19:57.220Z,-1.6
2023-02-15T11:21:53.468Z,-1.7
2023-02-15T11:23:49.164Z,-1.6
2023-02-15T11:25:56.575Z,-1.6
2023-02-15T11:27:49.726Z,-1.6
2023-02-15T11:29:57.662Z,-1.8
2023-02-15T11:31:50.103Z,-1.7
2023-02-15T11:33:51.757Z,-1.6
2023-02-15T11:35:53.647Z,-1.7
2023-02-15T11:37:50.706Z,-1.7
2023-02-15T11:39:46.947Z,-1.7
2023-02-15T11:41:51.180Z,-1.6
2023-02-15T11:43:51.367Z,-1.8
2023-02-15T11:45:48.742Z,-1.8
2023-02-15T11:47:46.736Z,-1.8
2023-02-15T11:49:46.314Z,-1.8
2023-02-15T11:51:46.432Z,-1.7
2023-02-15T11:53:47.074Z,-1.8
2023-02-15T11:55:49.185Z,-2
2023-02-15T11:57:52.662Z,-2
2023-02-15T11:59:51.071Z,-2
2023-02-15T12:01:46.533Z,-2
2023-02-15T12:03:47.932Z,-2
2023-02-15T12:05:49.600Z,-2
2023-02-15T12:07:52.786Z,-2
2023-02-15T12:09:52.487Z,-1.9
2023-02-15T12:11:45.209Z,-2
2023-02-15T12:13:58.046Z,-2
2023-02-15T12:15:47.791Z,-2
2023-02-15T12:17:52.072Z,-1.9
2023-02-15T12:19:46.272Z,-1.9
2023-02-15T12:21:50.675Z,-2
2023-02-15T12:23:48.949Z,-2.2
2023-02-15T12:25:49.796Z,-2.2
2023-02-15T12:27:44.045Z,-2.2
2023-02-15T12:29:49.153Z,-2.2
2023-02-15T12:31:46.113Z,-2.2
2023-02-15T12:33:44.861Z,-2.1
2023-02-15T12:35:45.025Z,-2.1
2023-02-15T12:37:54.962Z,-2
2023-02-15T12:39:54.465Z,-2.1
2023-02-15T12:41:47.293Z,-1.9
2023-02-15T12:43:44.754Z,-1.9
2023-02-15T12:45:43.202Z,-2
2023-02-15T12:47:43.437Z,-1.8
2023-02-15T12:49:48.054Z,-2.1
2023-02-15T12:51:47.377Z,-2
2023-02-15T12:53:45.155Z,-2
2023-02-15T12:55:51.478Z,-2
2023-02-15T12:57:42.851Z,-2
2023-02-15T12:59:49.928Z,-2.1
2023-02-15T13:01:45.543Z,-2.1
2023-02-15T13:03:58.153Z,-2.1
2023-02-15T13:05:46.485Z,-2.1
2023-02-15T13:07:47.000Z,-2.1
2023-02-15T13:09:41.233Z,-2.1
2023-02-15T13:11:44.273Z,-2.3
2023-02-15T13:13:53.738Z,-2.3
2023-02-15T13:15:44.551Z,-2.3
2023-02-15T13:17:40.420Z,-2.4
2023-02-15T13:19:45.919Z,-2.4
2023-02-15T13:21:44.468Z,-2.5
2023-02-15T13:23:46.315Z,-2.5
2023-02-15T13:25:47.570Z,-2.5
2023-02-15T13:27:42.878Z,-2.2
2023-02-15T13:29:40.487Z,-2.3
2023-02-15T13:31:40.764Z,-2.3
2023-02-15T13:33:42.896Z,-2.5
2023-02-15T13:35:47.815Z,-2.5
2023-02-15T13:37:56.894Z,-2.5
2023-02-15T13:39:43.072Z,-2.5
2023-02-15T13:41:51.394Z,-2.5
2023-02-15T13:43:49.359Z,-2.5
2023-02-15T13:45:51.285Z,-2.5
2023-02-15T13:47:53.003Z,-2.5
2023-02-15T13:49:51.895Z,-2.4
2023-02-15T13:51:46.777Z,-2.4
2023-02-15T13:53:56.350Z,-2.5
2023-02-15T13:55:46.042Z,-2.5
2023-02-15T13:57:57.657Z,-2.5
2023-02-15T13:59:47.997Z,-2.6
2023-02-15T14:01:45.190Z,-2.5
2023-02-15T14:03:57.544Z,-2.5
2023-02-15T14:05:54.931Z,-2.5
2023-02-15T14:07:53.558Z,-2.5
2023-02-15T14:09:51.862Z,-2.6
2023-02-15T14:11:40.805Z,-2.6
2023-02-15T14:14:13.354Z,-2.5
2023-02-15T14:15:41.632Z,-2.5
2023-02-15T14:17:49.002Z,-2.5
2023-02-15T14:19:43.526Z,-2.5
2023-02-15T14:21:42.770Z,-2.7
2023-02-15T14:23:48.367Z,-2.5
2023-02-15T14:25:42.705Z,-2.5
2023-02-15T14:27:52.922Z,-2.7
2023-02-15T14:29:48.753Z,-2.7
2023-02-15T14:31:41.622Z,-2.7
2023-02-15T14:33:38.958Z,-2.7
2023-02-15T14:35:36.018Z,-2.8
2023-02-15T14:37:46.386Z,-2.8
2023-02-15T14:39:45.616Z,-2.7
2023-02-15T14:41:44.109Z,-2.7
2023-02-15T14:43:47.650Z,-2.7
2023-02-15T14:45:41.122Z,-2.7
2023-02-15T14:47:40.632Z,-2.7
2023-02-15T14:49:38.348Z,-2.8
2023-02-15T14:51:57.313Z,-2.7
2023-02-15T14:53:37.167Z,-2.7
2023-02-15T14:55:36.496Z,-2.7
2023-02-15T14:57:36.739Z,-2.7
2023-02-15T14:59:40.346Z,-2.7
2023-02-15T15:01:36.631Z,-2.7
2023-02-15T15:03:34.700Z,-2.7
2023-02-15T15:05:47.556Z,-2.7
2023-02-15T15:07:43.417Z,-2.7
2023-02-15T15:09:36.131Z,-2.7
2023-02-15T15:11:44.879Z,-2.7
2023-02-15T15:13:52.445Z,-2.7
2023-02-15T15:15:45.735Z,-2.7
2023-02-15T15:17:55.662Z,-2.8
2023-02-15T15:19:59.808Z,-2.8
2023-02-15T15:22:01.809Z,-2.7
2023-02-15T15:23:48.683Z,-2.7
2023-02-15T15:25:48.406Z,-2.7
2023-02-15T15:27:43.619Z,-2.7
2023-02-15T15:29:42.305Z,-2.7
2023-02-15T15:31:47.552Z,-2.8
2023-02-15T15:34:01.337Z,-2.8
2023-02-15T15:35:46.015Z,-2.9
2023-02-15T15:37:56.218Z,-2.8
2023-02-15T15:40:13.397Z,-2.8
2023-02-15T15:41:42.765Z,-2.8
2023-02-15T15:43:50.260Z,-2.8
2023-02-15T15:45:58.485Z,-2.8
2023-02-15T15:47:53.439Z,-2.8
2023-02-15T15:49:35.089Z,-2.9
2023-02-15T15:51:33.923Z,-2.9
2023-02-15T15:53:39.049Z,-2.9
2023-02-15T15:55:34.751Z,-2.9
2023-02-15T15:57:35.187Z,-2.9
2023-02-15T15:59:33.469Z,-2.9
2023-02-15T16:01:37.501Z,-2.9
2023-02-15T16:03:31.738Z,-2.9
2023-02-15T16:05:37.884Z,-2.9
2023-02-15T16:07:30.794Z,-2.9
2023-02-15T16:09:31.383Z,-2.9
2023-02-15T16:11:32.590Z,-2.9
2023-02-15T16:13:30.977Z,-2.9
2023-02-15T16:15:37.471Z,-3
2023-02-15T16:17:33.287Z,-3
2023-02-15T16:19:32.607Z,-3
2023-02-15T16:21:34.680Z,-3
2023-02-15T16:23:52.274Z,-3
2023-02-15T16:25:43.052Z,-3
2023-02-15T16:27:41.773Z,-2.9
2023-02-15T16:29:32.697Z,-2.9
2023-02-15T16:31:33.138Z,-2.9
2023-02-15T16:33:38.142Z,-2.9
2023-02-15T16:35:29.822Z,-2.9
2023-02-15T16:37:34.141Z,-2.9
2023-02-15T16:39:29.422Z,-2.9
2023-02-15T16:41:30.754Z,-2.9
2023-02-15T16:43:33.119Z,-3.1
2023-02-15T16:45:30.220Z,-3.1
2023-02-15T16:47:33.636Z,-3.1
2023-02-15T16:49:30.639Z,-2.9
2023-02-15T16:51:33.122Z,-2.9
2023-02-15T16:53:32.419Z,-2.9
2023-02-15T16:55:32.359Z,-2.9
2023-02-15T16:57:30.336Z,-2.9
2023-02-15T16:59:38.998Z,-2.9
2023-02-15T17:01:33.416Z,-2.9
2023-02-15T17:03:27.453Z,-2.9
2023-02-15T17:05:34.222Z,-2.9
2023-02-15T17:07:26.540Z,-2.9
2023-02-15T17:09:26.617Z,-3
2023-02-15T17:11:37.715Z,-2.9
2023-02-15T17:13:28.448Z,-2.9
2023-02-15T17:15:33.438Z,-2.9
2023-02-15T17:17:27.360Z,-2.8
2023-02-15T17:19:28.877Z,-2.8
2023-02-15T17:21:32.519Z,-2.9
2023-02-15T17:23:31.991Z,-2.9
2023-02-15T17:25:34.673Z,-2.9
2023-02-15T17:27:31.156Z,-2.9
2023-02-15T17:29:35.041Z,-2.9
2023-02-15T17:31:29.422Z,-2.8
2023-02-15T17:33:38.059Z,-2.8
2023-02-15T17:35:27.673Z,-2.8
2023-02-15T17:37:31.448Z,-2.8
2023-02-15T17:39:25.463Z,-2.8
2023-02-15T17:41:26.539Z,-2.9
2023-02-15T17:43:24.351Z,-2.9
2023-02-15T17:45:28.587Z,-2.9
2023-02-15T17:47:27.539Z,-2.9
2023-02-15T17:49:28.077Z,-2.9
2023-02-15T17:51:25.567Z,-2.9
2023-02-15T17:53:27.000Z,-2.9
2023-02-15T17:55:26.198Z,-2.9
2023-02-15T17:57:26.716Z,-2.9
2023-02-15T17:59:24.834Z,-2.8
2023-02-15T18:01:25.953Z,-2.9
2023-02-15T18:03:25.963Z,-2.9
2023-02-15T18:05:23.984Z,-3
2023-02-15T18:07:22.283Z,-3
2023-02-15T18:09:21.442Z,-3
2023-02-15T18:11:19.164Z,-2.8
2023-02-15T18:13:19.927Z,-2.8
2023-02-15T18:15:18.745Z,-2.8
2023-02-15T18:17:18.688Z,-3
2023-02-15T18:19:20.899Z,-3
2023-02-15T18:21:18.341Z,-2.9
2023-02-15T18:23:18.160Z,-2.9
2023-02-15T18:25:21.663Z,-3
2023-02-15T18:27:17.683Z,-3
2023-02-15T18:29:17.703Z,-2.9
2023-02-15T18:31:19.266Z,-2.9
2023-02-15T18:33:34.209Z,-2.8
2023-02-15T18:35:20.077Z,-2.9
2023-02-15T18:37:20.063Z,-3
2023-02-15T18:39:25.388Z,-3
2023-02-15T18:41:18.839Z,-3
2023-02-15T18:43:16.331Z,-3.1
2023-02-15T18:45:18.573Z,-3.1
2023-02-15T18:47:16.180Z,-3.1
2023-02-15T18:49:15.926Z,-3
2023-02-15T18:51:19.070Z,-3
2023-02-15T18:53:19.442Z,-3
2023-02-15T18:55:18.776Z,-3
2023-02-15T18:57:15.838Z,-3
2023-02-15T18:59:15.800Z,-3
2023-02-15T19:01:17.174Z,-3.1
2023-02-15T19:03:17.264Z,-3.1
2023-02-15T19:05:14.756Z,-3.1
2023-02-15T19:07:19.371Z,-3.1
2023-02-15T19:09:19.181Z,-3.2
2023-02-15T19:11:17.465Z,-3.1
2023-02-15T19:13:13.892Z,-3.1
2023-02-15T19:15:15.993Z,-3.1
2023-02-15T19:17:15.628Z,-3.1
2023-02-15T19:19:13.290Z,-3.1
2023-02-15T19:21:16.069Z,-3.2
2023-02-15T19:23:18.132Z,-3.2
2023-02-15T19:25:18.778Z,-3.2
2023-02-15T19:27:21.884Z,-3.2
2023-02-15T19:29:15.012Z,-3.2
2023-02-15T19:31:12.563Z,-3.2
2023-02-15T19:33:16.754Z,-3.2
2023-02-15T19:35:16.307Z,-3.2
2023-02-15T19:37:20.125Z,-3.2
2023-02-15T19:39:23.537Z,-3.2
2023-02-15T19:41:19.731Z,-3.4
2023-02-15T19:43:16.435Z,-3.4
2023-02-15T19:45:13.844Z,-3.4
2023-02-15T19:47:12.698Z,-3.4
2023-02-15T19:49:11.169Z,-3.4
2023-02-15T19:51:12.414Z,-3.3
2023-02-15T19:53:21.479Z,-3.3
2023-02-15T19:55:18.606Z,-3.2
2023-02-15T19:57:11.129Z,-3.1
2023-02-15T19:59:20.190Z,-3.2
2023-02-15T20:01:09.635Z,-3.4
2023-02-15T20:03:09.390Z,-3.4
2023-02-15T20:05:09.373Z,-3.4
2023-02-15T20:07:24.735Z,-3.4
2023-02-15T20:09:17.299Z,-3.4
2023-02-15T20:11:09.695Z,-3.3
2023-02-15T20:13:12.766Z,-3.2
2023-02-15T20:15:18.894Z,-3.2
2023-02-15T20:17:08.121Z,-3.2
2023-02-15T20:19:08.425Z,-3.4
2023-02-15T20:21:14.961Z,-3.4
2023-02-15T20:23:17.410Z,-3.4
2023-02-15T20:25:12.053Z,-3.4
2023-02-15T20:27:14.624Z,-3.4
2023-02-15T20:29:11.322Z,-3.4
2023-02-15T20:31:14.010Z,-3.5
2023-02-15T20:33:06.826Z,-3.5
2023-02-15T20:35:08.167Z,-3.5
2023-02-15T20:37:18.339Z,-3.4
2023-02-15T20:39:14.457Z,-3.4
2023-02-15T20:41:11.813Z,-3.4
2023-02-15T20:43:14.271Z,-3.4
2023-02-15T20:45:15.616Z,-3.4
2023-02-15T20:47:05.438Z,-3.4
2023-02-15T20:49:05.379Z,-3.4
2023-02-15T20:51:10.337Z,-3.3
2023-02-15T20:53:08.609Z,-3.3
2023-02-15T20:55:12.983Z,-3.3
2023-02-15T20:57:04.611Z,-3.3
2023-02-15T20:59:15.668Z,-3.3
2023-02-15T21:01:09.645Z,-3.4
2023-02-15T21:03:12.352Z,-3.4
2023-02-15T21:05:13.427Z,-3.4
2023-02-15T21:07:03.674Z,-3.4
2023-02-15T21:09:03.657Z,-3.4
2023-02-15T21:11:03.861Z,-3.4
2023-02-15T21:13:03.510Z,-3.4
2023-02-15T21:15:21.662Z,-3.4
2023-02-15T21:17:02.808Z,-3.4
2023-02-15T21:19:10.747Z,-3.4
2023-02-15T21:21:05.098Z,-3.5
2023-02-15T21:23:04.305Z,-3.5
2023-02-15T21:25:02.808Z,-3.5
2023-02-15T21:27:03.445Z,-3.5
2023-02-15T21:29:01.704Z,-3.5
2023-02-15T21:31:02.066Z,-3.5
2023-02-15T21:33:01.469Z,-3.5
2023-02-15T21:35:01.197Z,-3.6
2023-02-15T21:37:01.110Z,-3.6
2023-02-15T21:39:01.024Z,-3.5
2023-02-15T21:41:01.023Z,-3.5
2023-02-15T21:43:00.717Z,-3.5
2023-02-15T21:45:00.809Z,-3.5
2023-02-15T21:47:00.313Z,-3.5
2023-02-15T21:49:00.800Z,-3.6
2023-02-15T21:50:59.777Z,-3.5
2023-02-15T21:52:59.965Z,-3.5
2023-02-15T21:54:59.871Z,-3.5
2023-02-15T21:56:59.215Z,-3.6
2023-02-15T21:58:59.102Z,-3.6
2023-02-15T22:01:00.783Z,-3.6
2023-02-15T22:02:59.602Z,-3.6
2023-02-15T22:04:59.027Z,-3.6
2023-02-15T22:06:58.437Z,-3.6
2023-02-15T22:08:58.150Z,-3.6
2023-02-15T22:10:58.044Z,-3.6
2023-02-15T22:13:00.854Z,-3.7
2023-02-15T22:14:57.745Z,-3.6
2023-02-15T22:16:57.516Z,-3.7
2023-02-15T22:18:57.500Z,-3.7
2023-02-15T22:20:58.033Z,-3.6
2023-02-15T22:22:57.148Z,-3.6
2023-02-15T22:24:56.940Z,-3.6
2023-02-15T22:26:56.622Z,-3.6
2023-02-15T22:28:56.557Z,-3.6
2023-02-15T22:30:56.342Z,-3.6
2023-02-15T22:32:57.731Z,-3.6
2023-02-15T22:34:56.067Z,-3.6
2023-02-15T22:36:57.103Z,-3.6
2023-02-15T22:38:56.797Z,-3.6
2023-02-15T22:40:57.579Z,-3.7
2023-02-15T22:42:56.246Z,-3.7
2023-02-15T22:44:56.668Z,-3.7
2023-02-15T22:46:55.439Z,-3.7
2023-02-15T22:48:54.606Z,-3.7
2023-02-15T22:50:54.603Z,-3.7
2023-02-15T22:52:54.759Z,-3.7
2023-02-15T22:54:53.999Z,-3.8
2023-02-15T22:56:53.792Z,-3.8
2023-02-15T22:58:57.091Z,-3.8
2023-02-15T23:00:53.739Z,-3.7
2023-02-15T23:02:54.398Z,-3.8
2023-02-15T23:04:53.094Z,-3.8
2023-02-15T23:06:53.439Z,-3.8
2023-02-15T23:08:52.737Z,-3.8
2023-02-15T23:10:55.053Z,-3.9
2023-02-15T23:12:54.790Z,-3.9
2023-02-15T23:14:52.745Z,-3.9
2023-02-15T23:16:52.078Z,-3.9
2023-02-15T23:18:51.796Z,-3.9
2023-02-15T23:20:53.874Z,-3.8
2023-02-15T23:22:51.464Z,-3.8
2023-02-15T23:24:52.873Z,-3.8
2023-02-15T23:26:51.483Z,-3.8
2023-02-15T23:28:51.644Z,-4
2023-02-15T23:30:51.145Z,-3.8
2023-02-15T23:32:52.193Z,-3.8
2023-02-15T23:34:50.291Z,-3.8
2023-02-15T23:36:50.334Z,-3.8
2023-02-15T23:38:49.824Z,-3.8
2023-02-15T23:40:54.057Z,-3.9
2023-02-15T23:42:49.592Z,-3.9
2023-02-15T23:44:49.406Z,-3.9
2023-02-15T23:46:49.818Z,-3.9
2023-02-15T23:48:49.036Z,-4
2023-02-15T23:50:48.723Z,-3.9
2023-02-15T23:52:50.212Z,-3.9
2023-02-15T23:54:48.348Z,-3.9
2023-02-15T23:56:51.038Z,-3.9
2023-02-15T23:58:48.319Z,-4.1
